sensor_id;sensor_type;location;lat;lon;timestamp;pressure;altitude;pressure_sealevel;temperature;humidity
11525;BME280;5819;49.648;8.330;2023-03-15T00:00:36;100174.97;;;3.36;100.00
11525;BME280;5819;49.648;8.330;2023-03-15T00:03:04;100172.53;;;3.28;100.00
11525;BME280;5819;49.648;8.330;2023-03-15T00:05:33;100188.81;;;3.26;100.00
11525;BME280;5819;49.648;8.330;2023-03-15T00:08:01;100182.81;;;3.27;100.00
11525;BME280;5819;49.648;8.330;2023-03-15T00:10:30;100188.13;;;3.16;100.00
11525;BME280;5819;49.648;8.330;2023-03-15T00:13:00;100195.88;;;3.13;100.00
11525;BME280;5819;49.648;8.330;2023-03-15T00:15:29;100202.78;;;3.10;100.00
11525;BME280;5819;49.648;8.330;2023-03-15T00:17:57;100205.56;;;2.95;100.00
11525;BME280;5819;49.648;8.330;2023-03-15T00:20:25;100215.09;;;2.85;100.00
11525;BME280;5819;49.648;8.330;2023-03-15T00:22:55;100212.63;;;2.77;100.00
11525;BME280;5819;49.648;8.330;2023-03-15T00:25:23;100220.44;;;2.71;100.00
11525;BME280;5819;49.648;8.330;2023-03-15T00:27:51;100221.41;;;2.63;100.00
11525;BME280;5819;49.648;8.330;2023-03-15T00:30:20;100223.13;;;2.61;100.00
11525;BME280;5819;49.648;8.330;2023-03-15T00:32:51;100231.78;;;2.54;100.00
11525;BME280;5819;49.648;8.330;2023-03-15T00:35:19;100236.06;;;2.53;100.00
11525;BME280;5819;49.648;8.330;2023-03-15T00:37:47;100236.19;;;2.44;100.00
11525;BME280;5819;49.648;8.330;2023-03-15T00:40:15;100237.94;;;2.39;100.00
11525;BME280;5819;49.648;8.330;2023-03-15T00:42:45;100240.56;;;2.34;100.00
11525;BME280;5819;49.648;8.330;2023-03-15T00:45:16;100244.03;;;2.29;100.00
11525;BME280;5819;49.648;8.330;2023-03-15T00:47:47;100252.63;;;2.28;100.00
11525;BME280;5819;49.648;8.330;2023-03-15T00:50:16;100248.34;;;2.25;100.00
11525;BME280;5819;49.648;8.330;2023-03-15T00:52:45;100248.38;;;2.24;100.00
11525;BME280;5819;49.648;8.330;2023-03-15T00:55:14;100255.22;;;2.22;100.00
11525;BME280;5819;49.648;8.330;2023-03-15T00:57:44;100254.53;;;2.06;100.00
11525;BME280;5819;49.648;8.330;2023-03-15T01:00:15;100258.00;;;2.01;100.00
11525;BME280;5819;49.648;8.330;2023-03-15T01:02:48;100260.69;;;1.85;100.00
11525;BME280;5819;49.648;8.330;2023-03-15T01:05:16;100260.78;;;1.78;100.00
11525;BME280;5819;49.648;8.330;2023-03-15T01:07:44;100267.69;;;1.65;100.00
11525;BME280;5819;49.648;8.330;2023-03-15T01:10:13;100260.91;;;1.64;100.00
11525;BME280;5819;49.648;8.330;2023-03-15T01:12:41;100259.25;;;1.54;100.00
11525;BME280;5819;49.648;8.330;2023-03-15T01:15:11;100261.88;;;1.47;100.00
11525;BME280;5819;49.648;8.330;2023-03-15T01:17:40;100259.34;;;1.42;100.00
11525;BME280;5819;49.648;8.330;2023-03-15T01:20:11;100271.31;;;1.37;100.00
11525;BME280;5819;49.648;8.330;2023-03-15T01:22:40;100273.91;;;1.35;100.00
11525;BME280;5819;49.648;8.330;2023-03-15T01:25:09;100276.44;;;1.40;100.00
11525;BME280;5819;49.648;8.330;2023-03-15T01:27:37;100283.28;;;1.38;100.00
11525;BME280;5819;49.648;8.330;2023-03-15T01:30:06;100279.03;;;1.34;100.00
11525;BME280;5819;49.648;8.330;2023-03-15T01:32:34;100288.50;;;1.21;100.00
11525;BME280;5819;49.648;8.330;2023-03-15T01:35:02;100287.66;;;1.18;100.00
11525;BME280;5819;49.648;8.330;2023-03-15T01:37:32;100287.69;;;1.13;100.00
11525;BME280;5819;49.648;8.330;2023-03-15T01:40:01;100296.25;;;1.11;100.00
11525;BME280;5819;49.648;8.330;2023-03-15T01:42:31;100288.56;;;1.11;100.00
11525;BME280;5819;49.648;8.330;2023-03-15T01:44:59;100290.25;;;1.13;100.00
11525;BME280;5819;49.648;8.330;2023-03-15T01:47:27;100297.97;;;1.07;100.00
11525;BME280;5819;49.648;8.330;2023-03-15T01:50:02;100295.38;;;1.13;100.00
11525;BME280;5819;49.648;8.330;2023-03-15T01:52:36;100293.66;;;1.18;100.00
11525;BME280;5819;49.648;8.330;2023-03-15T01:55:08;100293.59;;;1.26;100.00
11525;BME280;5819;49.648;8.330;2023-03-15T01:57:45;100290.16;;;1.30;100.00
11525;BME280;5819;49.648;8.330;2023-03-15T02:00:18;100299.56;;;1.31;100.00
11525;BME280;5819;49.648;8.330;2023-03-15T02:02:59;100287.56;;;1.34;100.00
11525;BME280;5819;49.648;8.330;2023-03-15T02:05:33;100289.28;;;1.34;100.00
11525;BME280;5819;49.648;8.330;2023-03-15T02:08:07;100278.16;;;1.36;100.00
11525;BME280;5819;49.648;8.330;2023-03-15T02:10:41;100284.97;;;1.42;100.00
11525;BME280;5819;49.648;8.330;2023-03-15T02:13:13;100301.22;;;1.38;100.00
11525;BME280;5819;49.648;8.330;2023-03-15T02:15:42;100308.06;;;1.39;100.00
11525;BME280;5819;49.648;8.330;2023-03-15T02:18:19;100303.81;;;1.35;100.00
11525;BME280;5819;49.648;8.330;2023-03-15T02:20:50;100299.53;;;1.32;100.00
11525;BME280;5819;49.648;8.330;2023-03-15T02:23:24;100305.53;;;1.31;100.00
11525;BME280;5819;49.648;8.330;2023-03-15T02:25:57;100302.16;;;1.22;100.00
11525;BME280;5819;49.648;8.330;2023-03-15T02:28:31;100305.69;;;1.04;100.00
11525;BME280;5819;49.648;8.330;2023-03-15T02:30:58;100307.44;;;0.94;100.00
11525;BME280;5819;49.648;8.330;2023-03-15T02:33:30;100322.78;;;0.93;100.00
11525;BME280;5819;49.648;8.330;2023-03-15T02:36:08;100313.38;;;1.03;100.00
11525;BME280;5819;49.648;8.330;2023-03-15T02:38:36;100318.53;;;0.92;100.00
11525;BME280;5819;49.648;8.330;2023-03-15T02:41:05;100322.84;;;0.79;100.00
11525;BME280;5819;49.648;8.330;2023-03-15T02:43:35;100323.69;;;0.77;100.00
11525;BME280;5819;49.648;8.330;2023-03-15T02:46:04;100330.53;;;0.75;100.00
11525;BME280;5819;49.648;8.330;2023-03-15T02:48:35;100333.09;;;0.75;100.00
11525;BME280;5819;49.648;8.330;2023-03-15T02:51:04;100333.94;;;0.74;100.00
11525;BME280;5819;49.648;8.330;2023-03-15T02:53:33;100341.63;;;0.72;100.00
11525;BME280;5819;49.648;8.330;2023-03-15T02:56:01;100338.22;;;0.73;100.00
11525;BME280;5819;49.648;8.330;2023-03-15T02:58:29;100336.50;;;0.77;100.00
11525;BME280;5819;49.648;8.330;2023-03-15T03:01:02;100334.72;;;0.92;100.00
11525;BME280;5819;49.648;8.330;2023-03-15T03:03:33;100339.84;;;1.03;100.00
11525;BME280;5819;49.648;8.330;2023-03-15T03:06:01;100337.13;;;1.30;100.00
11525;BME280;5819;49.648;8.330;2023-03-15T03:08:28;100339.63;;;1.41;100.00
11525;BME280;5819;49.648;8.330;2023-03-15T03:10:56;100348.22;;;1.35;100.00
11525;BME280;5819;49.648;8.330;2023-03-15T03:13:27;100346.47;;;1.40;100.00
11525;BME280;5819;49.648;8.330;2023-03-15T03:15:54;100349.91;;;1.38;100.00
11525;BME280;5819;49.648;8.330;2023-03-15T03:18:31;100343.88;;;1.48;100.00
11525;BME280;5819;49.648;8.330;2023-03-15T03:21:03;100348.16;;;1.46;100.00
11525;BME280;5819;49.648;8.330;2023-03-15T03:23:32;100350.75;;;1.40;100.00
11525;BME280;5819;49.648;8.330;2023-03-15T03:26:02;100358.44;;;1.37;100.00
11525;BME280;5819;49.648;8.330;2023-03-15T03:28:31;100360.13;;;1.41;100.00
11525;BME280;5819;49.648;8.330;2023-03-15T03:31:03;100356.63;;;1.59;100.00
11525;BME280;5819;49.648;8.330;2023-03-15T03:33:33;100365.22;;;1.50;100.00
11525;BME280;5819;49.648;8.330;2023-03-15T03:36:01;100363.53;;;1.45;100.00
11525;BME280;5819;49.648;8.330;2023-03-15T03:38:29;100361.88;;;1.33;100.00
11525;BME280;5819;49.648;8.330;2023-03-15T03:41:00;100367.88;;;1.35;100.00
11525;BME280;5819;49.648;8.330;2023-03-15T03:43:31;100374.72;;;1.31;100.00
11525;BME280;5819;49.648;8.330;2023-03-15T03:46:00;100382.50;;;1.07;100.00
11525;BME280;5819;49.648;8.330;2023-03-15T03:48:32;100391.06;;;0.99;100.00
11525;BME280;5819;49.648;8.330;2023-03-15T03:51:00;100385.09;;;0.93;100.00
11525;BME280;5819;49.648;8.330;2023-03-15T03:53:29;100389.28;;;1.13;100.00
11525;BME280;5819;49.648;8.330;2023-03-15T03:55:57;100388.38;;;1.29;100.00
11525;BME280;5819;49.648;8.330;2023-03-15T03:58:25;100390.09;;;1.28;100.00
11525;BME280;5819;49.648;8.330;2023-03-15T04:00:58;100388.34;;;1.36;100.00
11525;BME280;5819;49.648;8.330;2023-03-15T04:03:30;100384.06;;;1.40;100.00
11525;BME280;5819;49.648;8.330;2023-03-15T04:06:10;100386.56;;;1.51;100.00
11525;BME280;5819;49.648;8.330;2023-03-15T04:08:42;100378.84;;;1.58;100.00
11525;BME280;5819;49.648;8.330;2023-03-15T04:11:14;100383.09;;;1.58;100.00
11525;BME280;5819;49.648;8.330;2023-03-15T04:13:48;100377.94;;;1.65;100.00
11525;BME280;5819;49.648;8.330;2023-03-15T04:16:16;100389.03;;;1.67;100.00
11525;BME280;5819;49.648;8.330;2023-03-15T04:18:55;100401.88;;;1.64;100.00
11525;BME280;5819;49.648;8.330;2023-03-15T04:21:25;100391.63;;;1.63;100.00
11525;BME280;5819;49.648;8.330;2023-03-15T04:24:06;100401.88;;;1.63;100.00
11525;BME280;5819;49.648;8.330;2023-03-15T04:26:48;100405.31;;;1.62;100.00
11525;BME280;5819;49.648;8.330;2023-03-15T04:29:28;100407.88;;;1.60;100.00
11525;BME280;5819;49.648;8.330;2023-03-15T04:32:10;100410.44;;;1.63;100.00
11525;BME280;5819;49.648;8.330;2023-03-15T04:34:44;100406.16;;;1.61;100.00
11525;BME280;5819;49.648;8.330;2023-03-15T04:37:36;100405.28;;;1.65;100.00
11525;BME280;5819;49.648;8.330;2023-03-15T04:40:35;100401.00;;;1.67;100.00
11525;BME280;5819;49.648;8.330;2023-03-15T04:43:15;100421.50;;;1.67;100.00
11525;BME280;5819;49.648;8.330;2023-03-15T04:46:03;100404.41;;;1.66;100.00
11525;BME280;5819;49.648;8.330;2023-03-15T04:48:51;100407.75;;;1.81;100.00
11525;BME280;5819;49.648;8.330;2023-03-15T04:51:54;100406.88;;;1.85;100.00
11525;BME280;5819;49.648;8.330;2023-03-15T04:54:34;100412.00;;;1.85;100.00
11525;BME280;5819;49.648;8.330;2023-03-15T04:57:17;100402.50;;;1.97;100.00
11525;BME280;5819;49.648;8.330;2023-03-15T04:59:48;100404.19;;;2.01;100.00
11525;BME280;5819;49.648;8.330;2023-03-15T05:02:40;100397.41;;;1.95;100.00
11525;BME280;5819;49.648;8.330;2023-03-15T05:05:22;100405.78;;;2.17;100.00
11525;BME280;5819;49.648;8.330;2023-03-15T05:07:50;100410.03;;;2.21;100.00
11525;BME280;5819;49.648;8.330;2023-03-15T05:10:37;100408.38;;;2.14;100.00
11525;BME280;5819;49.648;8.330;2023-03-15T05:13:24;100402.44;;;2.10;100.00
11525;BME280;5819;49.648;8.330;2023-03-15T05:16:18;100413.53;;;2.12;100.00
11525;BME280;5819;49.648;8.330;2023-03-15T05:18:48;100425.50;;;2.12;100.00
11525;BME280;5819;49.648;8.330;2023-03-15T05:21:28;100426.41;;;2.08;100.00
11525;BME280;5819;49.648;8.330;2023-03-15T05:24:33;100423.03;;;2.00;100.00
11525;BME280;5819;49.648;8.330;2023-03-15T05:27:16;100430.66;;;2.06;100.00
11525;BME280;5819;49.648;8.330;2023-03-15T05:30:06;100434.91;;;2.14;100.00
11525;BME280;5819;49.648;8.330;2023-03-15T05:32:58;100452.03;;;2.11;100.00
11525;BME280;5819;49.648;8.330;2023-03-15T05:35:33;100446.03;;;2.12;100.00
11525;BME280;5819;49.648;8.330;2023-03-15T05:38:21;100440.88;;;2.15;100.00
11525;BME280;5819;49.648;8.330;2023-03-15T05:41:01;100447.66;;;2.23;100.00
11525;BME280;5819;49.648;8.330;2023-03-15T05:43:57;100437.41;;;2.23;100.00
11525;BME280;5819;49.648;8.330;2023-03-15T05:46:38;100431.31;;;2.35;100.00
11525;BME280;5819;49.648;8.330;2023-03-15T05:49:26;100431.09;;;2.62;100.00
11525;BME280;5819;49.648;8.330;2023-03-15T05:52:12;100431.25;;;2.44;100.00
11525;BME280;5819;49.648;8.330;2023-03-15T05:54:53;100440.59;;;2.50;100.00
11525;BME280;5819;49.648;8.330;2023-03-15T05:57:41;100446.69;;;2.40;100.00
11525;BME280;5819;49.648;8.330;2023-03-15T06:00:33;100456.13;;;2.36;100.00
11525;BME280;5819;49.648;8.330;2023-03-15T06:03:08;100447.53;;;2.40;100.00
11525;BME280;5819;49.648;8.330;2023-03-15T06:05:54;100460.41;;;2.35;100.00
11525;BME280;5819;49.648;8.330;2023-03-15T06:08:31;100458.69;;;2.36;100.00
11525;BME280;5819;49.648;8.330;2023-03-15T06:11:00;100470.69;;;2.35;100.00
11525;BME280;5819;49.648;8.330;2023-03-15T06:13:30;100473.22;;;2.39;100.00
11525;BME280;5819;49.648;8.330;2023-03-15T06:16:04;100468.00;;;2.46;100.00
11525;BME280;5819;49.648;8.330;2023-03-15T06:18:35;100466.22;;;2.60;100.00
11525;BME280;5819;49.648;8.330;2023-03-15T06:21:03;100469.56;;;2.65;100.00
11525;BME280;5819;49.648;8.330;2023-03-15T06:23:32;100479.06;;;2.56;100.00
11525;BME280;5819;49.648;8.330;2023-03-15T06:26:00;100481.63;;;2.57;100.00
11525;BME280;5819;49.648;8.330;2023-03-15T06:28:30;100490.13;;;2.61;100.00
11525;BME280;5819;49.648;8.330;2023-03-15T06:31:06;100505.63;;;2.50;100.00
11525;BME280;5819;49.648;8.330;2023-03-15T06:33:40;100512.44;;;2.60;100.00
11525;BME280;5819;49.648;8.330;2023-03-15T06:36:10;100503.84;;;2.64;100.00
11525;BME280;5819;49.648;8.330;2023-03-15T06:38:39;100499.59;;;2.59;100.00
11525;BME280;5819;49.648;8.330;2023-03-15T06:41:07;100508.97;;;2.63;100.00
11525;BME280;5819;49.648;8.330;2023-03-15T06:43:36;100502.84;;;2.77;100.00
11525;BME280;5819;49.648;8.330;2023-03-15T06:46:06;100505.41;;;2.79;100.00
11525;BME280;5819;49.648;8.330;2023-03-15T06:48:34;100498.56;;;2.78;100.00
11525;BME280;5819;49.648;8.330;2023-03-15T06:51:02;100507.13;;;2.77;100.00
11525;BME280;5819;49.648;8.330;2023-03-15T06:53:31;100524.31;;;2.72;100.00
11525;BME280;5819;49.648;8.330;2023-03-15T06:56:03;100526.09;;;2.64;100.00
11525;BME280;5819;49.648;8.330;2023-03-15T06:58:32;100523.38;;;2.77;100.00
11525;BME280;5819;49.648;8.330;2023-03-15T07:01:01;100535.44;;;2.71;100.00
11525;BME280;5819;49.648;8.330;2023-03-15T07:03:32;100529.44;;;2.72;100.00
11525;BME280;5819;49.648;8.330;2023-03-15T07:06:02;100530.25;;;2.80;100.00
11525;BME280;5819;49.648;8.330;2023-03-15T07:08:31;100534.34;;;3.01;100.00
11525;BME280;5819;49.648;8.330;2023-03-15T07:10:58;100539.56;;;2.92;100.00
11525;BME280;5819;49.648;8.330;2023-03-15T07:13:28;100533.56;;;2.91;100.00
11525;BME280;5819;49.648;8.330;2023-03-15T07:15:56;100525.91;;;2.85;100.00
11525;BME280;5819;49.648;8.330;2023-03-15T07:18:24;100518.22;;;2.82;100.00
11525;BME280;5819;49.648;8.330;2023-03-15T07:20:57;100521.53;;;2.95;100.00
11525;BME280;5819;49.648;8.330;2023-03-15T07:23:29;100513.88;;;2.90;100.00
11525;BME280;5819;49.648;8.330;2023-03-15T07:25:56;100524.97;;;2.95;100.00
11525;BME280;5819;49.648;8.330;2023-03-15T07:28:25;100524.97;;;2.95;100.00
11525;BME280;5819;49.648;8.330;2023-03-15T07:30:55;100519.91;;;2.86;100.00
11525;BME280;5819;49.648;8.330;2023-03-15T07:33:23;100527.56;;;2.92;100.00
11525;BME280;5819;49.648;8.330;2023-03-15T07:35:52;100531.84;;;2.90;100.00
11525;BME280;5819;49.648;8.330;2023-03-15T07:38:23;100530.94;;;2.99;100.00
11525;BME280;5819;49.648;8.330;2023-03-15T07:40:51;100528.28;;;3.08;100.00
11525;BME280;5819;49.648;8.330;2023-03-15T07:43:20;100533.47;;;3.02;100.00
11525;BME280;5819;49.648;8.330;2023-03-15T07:45:55;100533.47;;;3.02;100.00
11525;BME280;5819;49.648;8.330;2023-03-15T07:48:23;100536.06;;;2.99;100.00
11525;BME280;5819;49.648;8.330;2023-03-15T07:50:51;100543.66;;;3.11;100.00
11525;BME280;5819;49.648;8.330;2023-03-15T07:53:18;100542.00;;;3.08;100.00
11525;BME280;5819;49.648;8.330;2023-03-15T07:55:49;100546.28;;;3.08;100.00
11525;BME280;5819;49.648;8.330;2023-03-15T07:58:17;100550.69;;;2.91;100.00
11525;BME280;5819;49.648;8.330;2023-03-15T08:00:46;100554.97;;;2.92;100.00
11525;BME280;5819;49.648;8.330;2023-03-15T08:03:14;100561.03;;;2.85;100.00
11525;BME280;5819;49.648;8.330;2023-03-15T08:05:42;100562.69;;;2.92;100.00
11525;BME280;5819;49.648;8.330;2023-03-15T08:08:10;100567.81;;;2.92;100.00
11525;BME280;5819;49.648;8.330;2023-03-15T08:10:38;100565.28;;;2.87;100.00
11525;BME280;5819;49.648;8.330;2023-03-15T08:13:07;100570.38;;;2.92;100.00
11525;BME280;5819;49.648;8.330;2023-03-15T08:15:35;100572.06;;;2.96;100.00
11525;BME280;5819;49.648;8.330;2023-03-15T08:18:04;100576.47;;;2.78;100.00
11525;BME280;5819;49.648;8.330;2023-03-15T08:20:32;100577.19;;;2.96;100.00
11525;BME280;5819;49.648;8.330;2023-03-15T08:23:00;100573.78;;;2.95;100.00
11525;BME280;5819;49.648;8.330;2023-03-15T08:25:30;100576.28;;;3.03;100.00
11525;BME280;5819;49.648;8.330;2023-03-15T08:27:58;100576.28;;;3.01;100.00
11525;BME280;5819;49.648;8.330;2023-03-15T08:30:28;100581.47;;;2.94;100.00
11525;BME280;5819;49.648;8.330;2023-03-15T08:32:56;100587.44;;;2.97;100.00
11525;BME280;5819;49.648;8.330;2023-03-15T08:35:25;100590.06;;;2.96;100.00
11525;BME280;5819;49.648;8.330;2023-03-15T08:37:53;100589.97;;;3.06;100.00
11525;BME280;5819;49.648;8.330;2023-03-15T08:40:23;100590.00;;;3.05;100.00
11525;BME280;5819;49.648;8.330;2023-03-15T08:42:52;100598.59;;;2.98;100.00
11525;BME280;5819;49.648;8.330;2023-03-15T08:45:21;100592.56;;;3.02;100.00
11525;BME280;5819;49.648;8.330;2023-03-15T08:47:53;100589.81;;;3.24;100.00
11525;BME280;5819;49.648;8.330;2023-03-15T08:50:21;100583.72;;;3.36;100.00
11525;BME280;5819;49.648;8.330;2023-03-15T08:52:49;100593.16;;;3.31;100.00
11525;BME280;5819;49.648;8.330;2023-03-15T08:55:17;100590.31;;;3.60;100.00
11525;BME280;5819;49.648;8.330;2023-03-15T08:57:45;100590.84;;;3.91;100.00
11525;BME280;5819;49.648;8.330;2023-03-15T09:00:14;100592.16;;;4.22;100.00
11525;BME280;5819;49.648;8.330;2023-03-15T09:02:46;100589.56;;;4.23;100.00
11525;BME280;5819;49.648;8.330;2023-03-15T09:05:17;100589.72;;;4.11;100.00
11525;BME280;5819;49.648;8.330;2023-03-15T09:07:45;100592.25;;;4.16;100.00
11525;BME280;5819;49.648;8.330;2023-03-15T09:10:16;100592.25;;;4.16;100.00
11525;BME280;5819;49.648;8.330;2023-03-15T09:12:45;100602.50;;;4.19;100.00
11525;BME280;5819;49.648;8.330;2023-03-15T09:15:14;100601.63;;;4.20;100.00
11525;BME280;5819;49.648;8.330;2023-03-15T09:17:42;100597.19;;;4.33;100.00
11525;BME280;5819;49.648;8.330;2023-03-15T09:20:11;100611.22;;;4.06;100.00
11525;BME280;5819;49.648;8.330;2023-03-15T09:22:49;100612.09;;;4.06;100.00
11525;BME280;5819;49.648;8.330;2023-03-15T09:25:17;100617.94;;;4.17;100.00
11525;BME280;5819;49.648;8.330;2023-03-15T09:27:45;100608.13;;;4.48;100.00
11525;BME280;5819;49.648;8.330;2023-03-15T09:30:14;100617.03;;;4.23;100.00
11525;BME280;5819;49.648;8.330;2023-03-15T09:32:42;100624.19;;;3.98;100.00
11525;BME280;5819;49.648;8.330;2023-03-15T09:35:12;100620.38;;;4.30;100.00
11525;BME280;5819;49.648;8.330;2023-03-15T09:37:42;100625.53;;;4.31;100.00
11525;BME280;5819;49.648;8.330;2023-03-15T09:40:19;100629.66;;;4.44;100.00
11525;BME280;5819;49.648;8.330;2023-03-15T09:42:54;100632.81;;;4.64;100.00
11525;BME280;5819;49.648;8.330;2023-03-15T09:45:33;100635.28;;;4.72;100.00
11525;BME280;5819;49.648;8.330;2023-03-15T09:48:07;100633.41;;;4.83;100.00
11525;BME280;5819;49.648;8.330;2023-03-15T09:50:36;100641.13;;;4.82;100.00
11525;BME280;5819;49.648;8.330;2023-03-15T09:53:12;100651.47;;;4.80;100.00
11525;BME280;5819;49.648;8.330;2023-03-15T09:55:42;100645.19;;;4.99;100.00
11525;BME280;5819;49.648;8.330;2023-03-15T09:58:16;100638.16;;;5.09;100.00
11525;BME280;5819;49.648;8.330;2023-03-15T10:00:48;100639.66;;;5.24;100.00
11525;BME280;5819;49.648;8.330;2023-03-15T10:03:22;100646.47;;;5.28;100.00
11525;BME280;5819;49.648;8.330;2023-03-15T10:05:55;100642.22;;;5.25;100.00
11525;BME280;5819;49.648;8.330;2023-03-15T10:08:27;100645.25;;;5.48;100.00
11525;BME280;5819;49.648;8.330;2023-03-15T10:11:03;100644.91;;;5.68;100.00
11525;BME280;5819;49.648;8.330;2023-03-15T10:13:45;100644.69;;;5.82;100.00
11525;BME280;5819;49.648;8.330;2023-03-15T10:16:25;100640.59;;;6.15;100.00
11525;BME280;5819;49.648;8.330;2023-03-15T10:19:05;100641.75;;;6.01;100.00
11525;BME280;5819;49.648;8.330;2023-03-15T10:21:39;100644.28;;;6.03;100.00
11525;BME280;5819;49.648;8.330;2023-03-15T10:24:16;100655.69;;;5.91;100.00
11525;BME280;5819;49.648;8.330;2023-03-15T10:26:46;100648.72;;;5.96;100.00
11525;BME280;5819;49.648;8.330;2023-03-15T10:29:19;100646.59;;;6.58;100.00
11525;BME280;5819;49.648;8.330;2023-03-15T10:31:47;100649.66;;;6.35;99.56
11525;BME280;5819;49.648;8.330;2023-03-15T10:34:18;100659.00;;;5.98;98.58
11525;BME280;5819;49.648;8.330;2023-03-15T10:36:49;100660.72;;;5.99;100.00
11525;BME280;5819;49.648;8.330;2023-03-15T10:39:24;100645.38;;;6.34;99.21
11525;BME280;5819;49.648;8.330;2023-03-15T10:41:51;100640.94;;;6.81;98.33
11525;BME280;5819;49.648;8.330;2023-03-15T10:44:22;100648.38;;;6.54;96.91
11525;BME280;5819;49.648;8.330;2023-03-15T10:46:59;100638.56;;;6.70;96.71
11525;BME280;5819;49.648;8.330;2023-03-15T10:49:47;100639.75;;;6.55;96.52
11525;BME280;5819;49.648;8.330;2023-03-15T10:52:39;100647.50;;;6.14;97.67
11525;BME280;5819;49.648;8.330;2023-03-15T10:55:14;100637.78;;;6.27;98.90
11525;BME280;5819;49.648;8.330;2023-03-15T10:57:51;100636.94;;;6.26;99.86
11525;BME280;5819;49.648;8.330;2023-03-15T11:00:25;100634.50;;;6.19;99.27
11525;BME280;5819;49.648;8.330;2023-03-15T11:03:01;100630.88;;;6.29;100.00
11525;BME280;5819;49.648;8.330;2023-03-15T11:05:31;100639.91;;;6.06;99.48
11525;BME280;5819;49.648;8.330;2023-03-15T11:08:10;100628.22;;;5.89;99.70
11525;BME280;5819;49.648;8.330;2023-03-15T11:10:41;100633.88;;;6.07;100.00
11525;BME280;5819;49.648;8.330;2023-03-15T11:13:12;100635.50;;;6.13;100.00
11525;BME280;5819;49.648;8.330;2023-03-15T11:15:48;100629.41;;;6.16;100.00
11525;BME280;5819;49.648;8.330;2023-03-15T11:18:17;100630.53;;;6.45;100.00
11525;BME280;5819;49.648;8.330;2023-03-15T11:20:46;100638.28;;;6.45;98.46
11525;BME280;5819;49.648;8.330;2023-03-15T11:23:16;100626.66;;;6.65;99.95
11525;BME280;5819;49.648;8.330;2023-03-15T11:25:47;100631.66;;;6.71;99.42
11525;BME280;5819;49.648;8.330;2023-03-15T11:28:17;100622.66;;;7.24;95.70
11525;BME280;5819;49.648;8.330;2023-03-15T11:30:46;100619.38;;;7.85;94.27
11525;BME280;5819;49.648;8.330;2023-03-15T11:33:26;100624.00;;;8.05;90.30
11525;BME280;5819;49.648;8.330;2023-03-15T11:36:01;100617.09;;;7.40;90.46
11525;BME280;5819;49.648;8.330;2023-03-15T11:38:32;100624.34;;;7.60;91.60
11525;BME280;5819;49.648;8.330;2023-03-15T11:41:09;100625.47;;;7.50;90.90
11525;BME280;5819;49.648;8.330;2023-03-15T11:43:47;100629.38;;;7.66;91.87
11525;BME280;5819;49.648;8.330;2023-03-15T11:46:23;100623.13;;;7.39;89.67
11525;BME280;5819;49.648;8.330;2023-03-15T11:48:57;100623.91;;;7.43;91.41
11525;BME280;5819;49.648;8.330;2023-03-15T11:51:34;100634.88;;;7.52;91.66
11525;BME280;5819;49.648;8.330;2023-03-15T11:54:06;100636.84;;;7.77;92.56
11525;BME280;5819;49.648;8.330;2023-03-15T11:56:50;100642.97;;;7.74;89.31
11525;BME280;5819;49.648;8.330;2023-03-15T11:59:23;100636.75;;;8.12;89.26
11525;BME280;5819;49.648;8.330;2023-03-15T12:01:56;100633.16;;;8.16;88.69
11525;BME280;5819;49.648;8.330;2023-03-15T12:04:41;100634.13;;;8.14;88.18
11525;BME280;5819;49.648;8.330;2023-03-15T12:10:37;100635.19;;;8.37;86.69
11525;BME280;5819;49.648;8.330;2023-03-15T12:13:22;100639.84;;;8.25;86.53
11525;BME280;5819;49.648;8.330;2023-03-15T12:15:51;100641.25;;;8.36;88.28
11525;BME280;5819;49.648;8.330;2023-03-15T12:18:29;100634.00;;;8.18;85.78
11525;BME280;5819;49.648;8.330;2023-03-15T12:21:10;100636.41;;;8.24;82.33
11525;BME280;5819;49.648;8.330;2023-03-15T12:23:42;100631.69;;;8.68;83.70
11525;BME280;5819;49.648;8.330;2023-03-15T12:26:23;100627.72;;;8.84;84.03
11525;BME280;5819;49.648;8.330;2023-03-15T12:29:04;100634.97;;;8.74;82.72
11525;BME280;5819;49.648;8.330;2023-03-15T12:31:44;100638.94;;;8.57;80.25
11525;BME280;5819;49.648;8.330;2023-03-15T12:34:14;100642.19;;;8.63;81.23
11525;BME280;5819;49.648;8.330;2023-03-15T12:36:52;100647.53;;;8.29;81.85
11525;BME280;5819;49.648;8.330;2023-03-15T12:39:39;100657.00;;;8.30;84.77
11525;BME280;5819;49.648;8.330;2023-03-15T12:45:36;100646.22;;;9.01;83.98
11525;BME280;5819;49.648;8.330;2023-03-15T12:48:28;100625.63;;;9.99;76.77
11525;BME280;5819;49.648;8.330;2023-03-15T12:51:15;100624.03;;;10.19;75.37
11525;BME280;5819;49.648;8.330;2023-03-15T12:54:07;100611.41;;;10.32;73.10
11525;BME280;5819;49.648;8.330;2023-03-15T12:56:42;100604.81;;;10.47;72.65
11525;BME280;5819;49.648;8.330;2023-03-15T12:59:26;100601.88;;;10.99;71.54
11525;BME280;5819;49.648;8.330;2023-03-15T13:02:29;100608.41;;;10.88;70.51
11525;BME280;5819;49.648;8.330;2023-03-15T13:05:22;100599.50;;;10.93;69.15
11525;BME280;5819;49.648;8.330;2023-03-15T13:07:55;100591.63;;;11.37;69.30
11525;BME280;5819;49.648;8.330;2023-03-15T13:13:34;100595.47;;;10.86;66.94
11525;BME280;5819;49.648;8.330;2023-03-15T13:16:18;100596.44;;;11.25;69.31
11525;BME280;5819;49.648;8.330;2023-03-15T13:18:57;100589.13;;;11.55;66.71
11525;BME280;5819;49.648;8.330;2023-03-15T13:21:33;100599.97;;;11.45;70.88
11525;BME280;5819;49.648;8.330;2023-03-15T13:24:06;100617.34;;;10.36;73.75
11525;BME280;5819;49.648;8.330;2023-03-15T13:26:49;100622.34;;;9.69;77.64
11525;BME280;5819;49.648;8.330;2023-03-15T13:29:26;100637.31;;;8.54;80.12
11525;BME280;5819;49.648;8.330;2023-03-15T13:32:01;100648.53;;;7.91;80.91
11525;BME280;5819;49.648;8.330;2023-03-15T13:34:31;100647.84;;;7.51;81.33
11525;BME280;5819;49.648;8.330;2023-03-15T13:37:00;100640.84;;;7.88;80.53
11525;BME280;5819;49.648;8.330;2023-03-15T13:39:31;100638.66;;;8.06;82.28
11525;BME280;5819;49.648;8.330;2023-03-15T13:42:03;100645.28;;;8.16;82.15
11525;BME280;5819;49.648;8.330;2023-03-15T13:44:33;100636.44;;;8.54;80.82